sensor_id;sensor_type;location;lat;lon;timestamp;pressure;altitude;pressure_sealevel;temperature;humidity
76126;BME280;65174;48.138;21.002;2023-05-07T00:00:09;99323.78;;;15.45;82.51
76126;BME280;65174;48.138;21.002;2023-05-07T00:03:13;99319.19;;;15.28;82.48
76126;BME280;65174;48.138;21.002;2023-05-07T00:06:15;99318.00;;;15.11;83.33
76126;BME280;65174;48.138;21.002;2023-05-07T00:09:21;99306.00;;;15.10;84.28
76126;BME280;65174;48.138;21.002;2023-05-07T00:12:23;99315.69;;;15.08;84.04
76126;BME280;65174;48.138;21.002;2023-05-07T00:15:25;99305.56;;;15.14;83.30
76126;BME280;65174;48.138;21.002;2023-05-07T00:18:27;99310.28;;;15.21;82.60
76126;BME280;65174;48.138;21.002;2023-05-07T00:21:29;99298.13;;;15.00;82.21
76126;BME280;65174;48.138;21.002;2023-05-07T00:24:32;99309.13;;;15.13;81.46
76126;BME280;65174;48.138;21.002;2023-05-07T00:27:34;99306.94;;;15.09;81.08
76126;BME280;65174;48.138;21.002;2023-05-07T00:30:36;99307.31;;;15.04;81.01
76126;BME280;65174;48.138;21.002;2023-05-07T00:33:38;99301.94;;;14.96;80.65
76126;BME280;65174;48.138;21.002;2023-05-07T00:36:40;99308.09;;;14.95;79.99
76126;BME280;65174;48.138;21.002;2023-05-07T00:39:42;99306.97;;;14.88;80.57
76126;BME280;65174;48.138;21.002;2023-05-07T00:42:44;99306.31;;;14.96;79.81
76126;BME280;65174;48.138;21.002;2023-05-07T00:45:49;99310.69;;;14.95;80.02
76126;BME280;65174;48.138;21.002;2023-05-07T00:48:52;99307.50;;;14.92;80.27
76126;BME280;65174;48.138;21.002;2023-05-07T00:51:54;99319.44;;;14.94;80.25
76126;BME280;65174;48.138;21.002;2023-05-07T00:54:57;99319.44;;;14.94;80.30
76126;BME280;65174;48.138;21.002;2023-05-07T00:57:59;99322.72;;;14.96;80.22
76126;BME280;65174;48.138;21.002;2023-05-07T01:01:01;99326.78;;;14.89;80.37
76126;BME280;65174;48.138;21.002;2023-05-07T01:04:04;99327.78;;;14.77;81.04
76126;BME280;65174;48.138;21.002;2023-05-07T01:07:06;99326.41;;;14.73;80.90
76126;BME280;65174;48.138;21.002;2023-05-07T01:10:10;99319.69;;;14.71;81.21
76126;BME280;65174;48.138;21.002;2023-05-07T01:13:14;99325.56;;;14.73;80.68
76126;BME280;65174;48.138;21.002;2023-05-07T01:16:17;99315.84;;;14.65;80.75
76126;BME280;65174;48.138;21.002;2023-05-07T01:19:19;99329.50;;;14.67;80.97
76126;BME280;65174;48.138;21.002;2023-05-07T01:22:30;99330.59;;;14.65;81.36
76126;BME280;65174;48.138;21.002;2023-05-07T01:25:34;99329.50;;;14.67;81.76
76126;BME280;65174;48.138;21.002;2023-05-07T01:28:47;99337.31;;;14.67;81.88
76126;BME280;65174;48.138;21.002;2023-05-07T01:31:50;99334.69;;;14.67;82.09
76126;BME280;65174;48.138;21.002;2023-05-07T01:34:54;99337.06;;;14.70;82.68
76126;BME280;65174;48.138;21.002;2023-05-07T01:37:57;99342.72;;;14.64;82.41
76126;BME280;65174;48.138;21.002;2023-05-07T01:40:59;99333.69;;;14.59;82.71
76126;BME280;65174;48.138;21.002;2023-05-07T01:44:03;99330.34;;;14.47;83.33
76126;BME280;65174;48.138;21.002;2023-05-07T01:47:06;99329.69;;;14.34;83.57
76126;BME280;65174;48.138;21.002;2023-05-07T01:50:09;99338.56;;;14.52;83.19
76126;BME280;65174;48.138;21.002;2023-05-07T01:53:12;99334.16;;;14.32;84.64
76126;BME280;65174;48.138;21.002;2023-05-07T01:56:14;99346.91;;;14.24;85.84
76126;BME280;65174;48.138;21.002;2023-05-07T01:59:17;99342.63;;;13.91;85.82
76126;BME280;65174;48.138;21.002;2023-05-07T02:02:19;99338.44;;;14.11;85.83
76126;BME280;65174;48.138;21.002;2023-05-07T02:05:21;99334.91;;;14.12;85.64
76126;BME280;65174;48.138;21.002;2023-05-07T02:08:31;99329.00;;;14.10;85.34
76126;BME280;65174;48.138;21.002;2023-05-07T02:11:33;99330.00;;;13.87;85.91
76126;BME280;65174;48.138;21.002;2023-05-07T02:14:35;99331.25;;;14.14;85.40
76126;BME280;65174;48.138;21.002;2023-05-07T02:18:01;99331.78;;;14.40;84.84
76126;BME280;65174;48.138;21.002;2023-05-07T02:21:04;99335.59;;;14.57;83.54
76126;BME280;65174;48.138;21.002;2023-05-07T02:24:06;99327.22;;;14.53;82.98
76126;BME280;65174;48.138;21.002;2023-05-07T02:27:08;99317.97;;;14.60;82.79
76126;BME280;65174;48.138;21.002;2023-05-07T02:30:11;99308.03;;;14.65;82.31
76126;BME280;65174;48.138;21.002;2023-05-07T02:33:13;99314.81;;;14.57;83.13
76126;BME280;65174;48.138;21.002;2023-05-07T02:36:16;99310.88;;;14.42;82.77
76126;BME280;65174;48.138;21.002;2023-05-07T02:39:29;99304.56;;;14.35;82.78
76126;BME280;65174;48.138;21.002;2023-05-07T02:42:31;99305.41;;;14.24;83.21
76126;BME280;65174;48.138;21.002;2023-05-07T02:45:33;99299.25;;;14.25;82.95
76126;BME280;65174;48.138;21.002;2023-05-07T02:48:37;99298.03;;;14.40;82.12
76126;BME280;65174;48.138;21.002;2023-05-07T02:51:39;99305.16;;;14.16;82.81
76126;BME280;65174;48.138;21.002;2023-05-07T02:54:46;99308.94;;;14.12;82.98
76126;BME280;65174;48.138;21.002;2023-05-07T02:57:48;99309.72;;;14.03;83.38
76126;BME280;65174;48.138;21.002;2023-05-07T03:00:50;99306.00;;;14.16;82.66
76126;BME280;65174;48.138;21.002;2023-05-07T03:04:21;99313.97;;;14.24;82.10
76126;BME280;65174;48.138;21.002;2023-05-07T03:07:23;99312.94;;;14.16;82.40
76126;BME280;65174;48.138;21.002;2023-05-07T03:10:25;99312.50;;;14.11;82.55
76126;BME280;65174;48.138;21.002;2023-05-07T03:13:27;99312.72;;;13.76;83.46
76126;BME280;65174;48.138;21.002;2023-05-07T03:16:29;99315.28;;;13.87;82.84
76126;BME280;65174;48.138;21.002;2023-05-07T03:19:31;99313.38;;;13.89;83.21
76126;BME280;65174;48.138;21.002;2023-05-07T03:22:33;99317.03;;;13.87;83.21
76126;BME280;65174;48.138;21.002;2023-05-07T03:25:36;99322.34;;;13.96;82.80
76126;BME280;65174;48.138;21.002;2023-05-07T03:28:38;99323.63;;;14.02;82.81
76126;BME280;65174;48.138;21.002;2023-05-07T03:31:44;99327.16;;;14.01;83.36
76126;BME280;65174;48.138;21.002;2023-05-07T03:34:47;99339.81;;;14.26;82.60
76126;BME280;65174;48.138;21.002;2023-05-07T03:37:49;99331.84;;;14.18;83.18
76126;BME280;65174;48.138;21.002;2023-05-07T03:40:52;99341.38;;;14.17;83.23
76126;BME280;65174;48.138;21.002;2023-05-07T03:43:54;99341.97;;;14.10;83.22
76126;BME280;65174;48.138;21.002;2023-05-07T03:46:57;99343.09;;;13.96;83.27
76126;BME280;65174;48.138;21.002;2023-05-07T03:49:59;99347.69;;;13.93;83.71
76126;BME280;65174;48.138;21.002;2023-05-07T03:53:01;99353.59;;;13.84;84.50
76126;BME280;65174;48.138;21.002;2023-05-07T03:56:05;99355.63;;;13.80;84.63
76126;BME280;65174;48.138;21.002;2023-05-07T03:59:12;99359.22;;;13.89;84.53
76126;BME280;65174;48.138;21.002;2023-05-07T04:02:17;99354.72;;;14.02;84.13
76126;BME280;65174;48.138;21.002;2023-05-07T04:05:20;99351.22;;;14.03;84.17
76126;BME280;65174;48.138;21.002;2023-05-07T04:08:25;99360.47;;;14.16;83.71
76126;BME280;65174;48.138;21.002;2023-05-07T04:11:28;99367.47;;;14.05;83.78
76126;BME280;65174;48.138;21.002;2023-05-07T04:14:30;99369.56;;;14.11;84.06
76126;BME280;65174;48.138;21.002;2023-05-07T04:17:34;99376.03;;;14.16;83.47
76126;BME280;65174;48.138;21.002;2023-05-07T04:20:37;99381.81;;;14.31;83.10
76126;BME280;65174;48.138;21.002;2023-05-07T04:23:42;99390.50;;;14.73;81.23
76126;BME280;65174;48.138;21.002;2023-05-07T04:26:46;99396.34;;;15.48;79.38
76126;BME280;65174;48.138;21.002;2023-05-07T04:29:48;99386.53;;;15.40;78.94
76126;BME280;65174;48.138;21.002;2023-05-07T04:32:52;99390.91;;;15.09;80.43
76126;BME280;65174;48.138;21.002;2023-05-07T04:35:56;99401.03;;;14.92;80.79
76126;BME280;65174;48.138;21.002;2023-05-07T04:38:58;99409.13;;;15.19;80.74
76126;BME280;65174;48.138;21.002;2023-05-07T04:42:00;99406.47;;;15.30;79.43
76126;BME280;65174;48.138;21.002;2023-05-07T04:45:03;99415.41;;;15.17;80.18
76126;BME280;65174;48.138;21.002;2023-05-07T04:48:09;99412.69;;;14.97;79.83
76126;BME280;65174;48.138;21.002;2023-05-07T04:51:14;99418.31;;;15.23;79.55
76126;BME280;65174;48.138;21.002;2023-05-07T04:54:16;99420.19;;;15.42;78.12
76126;BME280;65174;48.138;21.002;2023-05-07T04:57:18;99417.88;;;15.39;78.05
76126;BME280;65174;48.138;21.002;2023-05-07T05:00:20;99429.91;;;15.40;78.67
76126;BME280;65174;48.138;21.002;2023-05-07T05:03:25;99434.78;;;15.84;78.35
76126;BME280;65174;48.138;21.002;2023-05-07T05:06:27;99430.06;;;15.99;77.78
76126;BME280;65174;48.138;21.002;2023-05-07T05:09:30;99431.63;;;16.11;77.45
76126;BME280;65174;48.138;21.002;2023-05-07T05:12:32;99434.31;;;16.00;76.88
76126;BME280;65174;48.138;21.002;2023-05-07T05:15:35;99438.19;;;15.45;79.08
76126;BME280;65174;48.138;21.002;2023-05-07T05:18:37;99450.00;;;15.17;80.47
76126;BME280;65174;48.138;21.002;2023-05-07T05:21:40;99443.88;;;15.18;80.36
76126;BME280;65174;48.138;21.002;2023-05-07T05:24:43;99451.91;;;15.36;79.42
76126;BME280;65174;48.138;21.002;2023-05-07T05:27:46;99449.00;;;16.10;77.35
76126;BME280;65174;48.138;21.002;2023-05-07T05:30:48;99458.25;;;16.43;76.72
76126;BME280;65174;48.138;21.002;2023-05-07T05:33:52;99457.25;;;16.84;73.32
76126;BME280;65174;48.138;21.002;2023-05-07T05:36:54;99461.75;;;16.72;76.58
76126;BME280;65174;48.138;21.002;2023-05-07T05:39:56;99452.31;;;16.90;73.17
76126;BME280;65174;48.138;21.002;2023-05-07T05:43:00;99457.63;;;17.17;72.71
76126;BME280;65174;48.138;21.002;2023-05-07T05:46:02;99455.78;;;17.66;72.21
76126;BME280;65174;48.138;21.002;2023-05-07T05:49:06;99461.44;;;17.32;70.04
76126;BME280;65174;48.138;21.002;2023-05-07T05:52:09;99456.91;;;17.44;71.25
76126;BME280;65174;48.138;21.002;2023-05-07T05:55:12;99462.81;;;17.92;69.72
76126;BME280;65174;48.138;21.002;2023-05-07T05:58:15;99457.28;;;18.50;66.75
76126;BME280;65174;48.138;21.002;2023-05-07T06:01:24;99455.16;;;17.81;68.33
76126;BME280;65174;48.138;21.002;2023-05-07T06:04:28;99463.41;;;18.41;67.83
76126;BME280;65174;48.138;21.002;2023-05-07T06:07:31;99454.34;;;18.35;67.23
76126;BME280;65174;48.138;21.002;2023-05-07T06:10:33;99468.63;;;18.41;68.52
76126;BME280;65174;48.138;21.002;2023-05-07T06:13:35;99464.53;;;18.28;68.40
76126;BME280;65174;48.138;21.002;2023-05-07T06:16:37;99461.25;;;18.26;68.71
76126;BME280;65174;48.138;21.002;2023-05-07T06:19:41;99464.53;;;18.28;69.07
76126;BME280;65174;48.138;21.002;2023-05-07T06:22:44;99470.47;;;18.31;70.16
76126;BME280;65174;48.138;21.002;2023-05-07T06:25:51;99470.41;;;18.40;69.18
76126;BME280;65174;48.138;21.002;2023-05-07T06:28:57;99460.66;;;18.15;69.16
76126;BME280;65174;48.138;21.002;2023-05-07T06:32:12;99473.94;;;18.21;68.77
76126;BME280;65174;48.138;21.002;2023-05-07T06:35:18;99459.28;;;18.11;68.68
76126;BME280;65174;48.138;21.002;2023-05-07T06:38:20;99471.53;;;18.10;70.42
76126;BME280;65174;48.138;21.002;2023-05-07T06:41:23;99464.66;;;17.73;72.94
76126;BME280;65174;48.138;21.002;2023-05-07T06:44:25;99465.34;;;18.11;72.41
76126;BME280;65174;48.138;21.002;2023-05-07T06:47:53;99465.44;;;17.92;73.78
76126;BME280;65174;48.138;21.002;2023-05-07T06:50:57;99466.28;;;18.38;72.21
76126;BME280;65174;48.138;21.002;2023-05-07T06:54:00;99464.78;;;18.45;71.53
76126;BME280;65174;48.138;21.002;2023-05-07T06:57:02;99463.38;;;18.68;69.46
76126;BME280;65174;48.138;21.002;2023-05-07T07:00:06;99471.56;;;19.26;68.14
76126;BME280;65174;48.138;21.002;2023-05-07T07:03:19;99471.91;;;19.48;67.39
76126;BME280;65174;48.138;21.002;2023-05-07T07:06:22;99469.22;;;18.35;68.31
76126;BME280;65174;48.138;21.002;2023-05-07T07:09:24;99473.88;;;18.93;67.80
76126;BME280;65174;48.138;21.002;2023-05-07T07:12:28;99480.78;;;18.94;65.57
76126;BME280;65174;48.138;21.002;2023-05-07T07:15:31;99476.63;;;19.70;64.87
76126;BME280;65174;48.138;21.002;2023-05-07T07:18:33;99466.44;;;19.93;62.15
76126;BME280;65174;48.138;21.002;2023-05-07T07:21:36;99473.41;;;20.10;62.96
76126;BME280;65174;48.138;21.002;2023-05-07T07:24:38;99480.25;;;20.45;60.82
76126;BME280;65174;48.138;21.002;2023-05-07T07:27:42;99486.06;;;19.63;62.38
76126;BME280;65174;48.138;21.002;2023-05-07T07:30:45;99486.78;;;20.33;61.35
76126;BME280;65174;48.138;21.002;2023-05-07T07:33:48;99485.25;;;19.63;62.02
76126;BME280;65174;48.138;21.002;2023-05-07T07:36:54;99492.19;;;20.06;61.08
76126;BME280;65174;48.138;21.002;2023-05-07T07:39:57;99487.19;;;19.87;60.65
76126;BME280;65174;48.138;21.002;2023-05-07T07:43:00;99478.22;;;19.63;61.94
76126;BME280;65174;48.138;21.002;2023-05-07T07:46:03;99474.03;;;20.04;62.56
76126;BME280;65174;48.138;21.002;2023-05-07T07:49:06;99472.34;;;20.29;60.27
76126;BME280;65174;48.138;21.002;2023-05-07T07:52:09;99472.94;;;20.56;59.72
76126;BME280;65174;48.138;21.002;2023-05-07T07:55:13;99476.47;;;20.31;59.85
76126;BME280;65174;48.138;21.002;2023-05-07T07:58:19;99476.72;;;19.18;63.85
76126;BME280;65174;48.138;21.002;2023-05-07T08:01:22;99481.31;;;19.93;60.74
76126;BME280;65174;48.138;21.002;2023-05-07T08:04:24;99480.94;;;20.13;60.73
76126;BME280;65174;48.138;21.002;2023-05-07T08:07:28;99471.19;;;19.90;60.28
76126;BME280;65174;48.138;21.002;2023-05-07T08:10:30;99478.63;;;20.44;58.19
76126;BME280;65174;48.138;21.002;2023-05-07T08:13:41;99483.13;;;20.26;59.45
76126;BME280;65174;48.138;21.002;2023-05-07T08:16:44;99484.66;;;20.36;59.73
76126;BME280;65174;48.138;21.002;2023-05-07T08:19:46;99475.94;;;20.94;57.97
76126;BME280;65174;48.138;21.002;2023-05-07T08:22:49;99477.69;;;20.61;58.07
76126;BME280;65174;48.138;21.002;2023-05-07T08:25:51;99471.06;;;20.41;59.13
76126;BME280;65174;48.138;21.002;2023-05-07T08:28:54;99460.34;;;19.85;60.89
76126;BME280;65174;48.138;21.002;2023-05-07T08:31:57;99480.28;;;20.53;58.27
76126;BME280;65174;48.138;21.002;2023-05-07T08:34:59;99471.03;;;20.25;59.30
76126;BME280;65174;48.138;21.002;2023-05-07T08:38:01;99476.31;;;19.73;59.16
76126;BME280;65174;48.138;21.002;2023-05-07T08:41:03;99474.00;;;19.45;59.93
76126;BME280;65174;48.138;21.002;2023-05-07T08:44:12;99479.75;;;19.74;58.33
76126;BME280;65174;48.138;21.002;2023-05-07T08:47:14;99476.84;;;19.77;58.36
76126;BME280;65174;48.138;21.002;2023-05-07T08:50:18;99477.25;;;19.39;58.26
76126;BME280;65174;48.138;21.002;2023-05-07T08:53:23;99478.19;;;19.55;57.76
76126;BME280;65174;48.138;21.002;2023-05-07T08:56:26;99482.16;;;19.42;57.21
76126;BME280;65174;48.138;21.002;2023-05-07T08:59:29;99473.28;;;19.35;57.44
76126;BME280;65174;48.138;21.002;2023-05-07T09:02:32;99484.53;;;20.12;57.06
76126;BME280;65174;48.138;21.002;2023-05-07T09:05:34;99481.25;;;19.76;57.29
76126;BME280;65174;48.138;21.002;2023-05-07T09:08:40;99474.94;;;19.87;57.64
76126;BME280;65174;48.138;21.002;2023-05-07T09:11:43;99477.81;;;19.76;57.57
76126;BME280;65174;48.138;21.002;2023-05-07T09:14:46;99478.63;;;19.51;58.81
76126;BME280;65174;48.138;21.002;2023-05-07T09:17:49;99468.50;;;19.48;58.06
76126;BME280;65174;48.138;21.002;2023-05-07T09:20:51;99469.53;;;20.22;57.23
76126;BME280;65174;48.138;21.002;2023-05-07T09:23:55;99474.81;;;20.30;56.34
76126;BME280;65174;48.138;21.002;2023-05-07T09:27:11;99465.56;;;20.60;54.31
76126;BME280;65174;48.138;21.002;2023-05-07T09:30:17;99470.69;;;20.78;54.99
76126;BME280;65174;48.138;21.002;2023-05-07T09:33:19;99470.38;;;21.21;54.50
76126;BME280;65174;48.138;21.002;2023-05-07T09:36:26;99470.84;;;21.49;51.00
76126;BME280;65174;48.138;21.002;2023-05-07T09:39:41;99466.75;;;21.22;53.15
76126;BME280;65174;48.138;21.002;2023-05-07T09:42:45;99463.13;;;20.67;54.20
76126;BME280;65174;48.138;21.002;2023-05-07T09:45:49;99465.97;;;21.13;53.41
76126;BME280;65174;48.138;21.002;2023-05-07T09:48:57;99460.66;;;21.70;50.62
76126;BME280;65174;48.138;21.002;2023-05-07T09:52:03;99466.63;;;21.15;51.33
76126;BME280;65174;48.138;21.002;2023-05-07T09:55:10;99459.28;;;21.90;51.51
76126;BME280;65174;48.138;21.002;2023-05-07T09:58:14;99457.13;;;21.93;49.28
76126;BME280;65174;48.138;21.002;2023-05-07T10:01:20;99451.75;;;21.71;52.24
76126;BME280;65174;48.138;21.002;2023-05-07T10:04:28;99457.63;;;21.81;48.82
76126;BME280;65174;48.138;21.002;2023-05-07T10:07:31;99459.22;;;21.35;50.53
76126;BME280;65174;48.138;21.002;2023-05-07T10:10:40;99454.47;;;21.39;52.03
76126;BME280;65174;48.138;21.002;2023-05-07T10:13:46;99455.22;;;22.26;48.91
76126;BME280;65174;48.138;21.002;2023-05-07T10:16:50;99449.16;;;21.71;49.94
76126;BME280;65174;48.138;21.002;2023-05-07T10:19:55;99439.66;;;22.47;49.02
76126;BME280;65174;48.138;21.002;2023-05-07T10:22:58;99444.59;;;22.11;47.17
76126;BME280;65174;48.138;21.002;2023-05-07T10:26:09;99440.94;;;22.51;47.71
76126;BME280;65174;48.138;21.002;2023-05-07T10:29:15;99438.38;;;22.43;47.92
76126;BME280;65174;48.138;21.002;2023-05-07T10:32:40;99440.78;;;22.75;49.09
76126;BME280;65174;48.138;21.002;2023-05-07T10:35:50;99438.38;;;22.43;48.07
76126;BME280;65174;48.138;21.002;2023-05-07T10:38:52;99447.06;;;22.74;48.19
76126;BME280;65174;48.138;21.002;2023-05-07T10:41:55;99433.22;;;22.80;48.55
76126;BME280;65174;48.138;21.002;2023-05-07T10:45:11;99441.88;;;21.89;50.44
76126;BME280;65174;48.138;21.002;2023-05-07T10:48:16;99437.09;;;22.31;49.39
76126;BME280;65174;48.138;21.002;2023-05-07T10:51:35;99439.16;;;22.13;49.88
76126;BME280;65174;48.138;21.002;2023-05-07T10:54:46;99440.06;;;23.04;48.52
76126;BME280;65174;48.138;21.002;2023-05-07T10:57:50;99430.94;;;23.37;47.16
76126;BME280;65174;48.138;21.002;2023-05-07T11:01:02;99426.47;;;23.01;47.35
76126;BME280;65174;48.138;21.002;2023-05-07T11:04:13;99426.66;;;22.76;46.77
76126;BME280;65174;48.138;21.002;2023-05-07T11:07:54;99421.94;;;23.09;46.62
76126;BME280;65174;48.138;21.002;2023-05-07T11:11:06;99422.72;;;22.95;44.66
76126;BME280;65174;48.138;21.002;2023-05-07T11:17:58;99411.97;;;22.82;46.38
76126;BME280;65174;48.138;21.002;2023-05-07T11:21:05;99411.78;;;23.58;44.75
76126;BME280;65174;48.138;21.002;2023-05-07T11:24:16;99407.78;;;23.33;44.42
76126;BME280;65174;48.138;21.002;2023-05-07T11:27:26;99403.41;;;23.03;43.97
76126;BME280;65174;48.138;21.002;2023-05-07T11:30:34;99406.34;;;23.08;43.20
76126;BME280;65174;48.138;21.002;2023-05-07T11:33:37;99404.94;;;22.52;44.94
76126;BME280;65174;48.138;21.002;2023-05-07T11:36:45;99407.03;;;22.34;45.08
76126;BME280;65174;48.138;21.002;2023-05-07T11:39:51;99404.22;;;22.88;44.24
76126;BME280;65174;48.138;21.002;2023-05-07T11:43:10;99404.38;;;22.87;44.73
76126;BME280;65174;48.138;21.002;2023-05-07T11:46:12;99401.25;;;23.43;43.64
76126;BME280;65174;48.138;21.002;2023-05-07T11:49:17;99398.38;;;23.16;44.27
76126;BME280;65174;48.138;21.002;2023-05-07T11:52:21;99394.97;;;23.74;42.40
76126;BME280;65174;48.138;21.002;2023-05-07T11:55:24;99402.50;;;24.06;43.43
76126;BME280;65174;48.138;21.002;2023-05-07T11:58:27;99398.81;;;23.71;43.03
76126;BME280;65174;48.138;21.002;2023-05-07T12:01:29;99405.63;;;24.30;42.77
76126;BME280;65174;48.138;21.002;2023-05-07T12:04:32;99403.41;;;23.69;42.90
76126;BME280;65174;48.138;21.002;2023-05-07T12:07:34;99390.22;;;22.88;43.24
76126;BME280;65174;48.138;21.002;2023-05-07T12:10:40;99388.41;;;22.43;44.52
76126;BME280;65174;48.138;21.002;2023-05-07T12:13:43;99383.16;;;22.88;45.54
76126;BME280;65174;48.138;21.002;2023-05-07T12:16:45;99378.00;;;23.61;42.69
76126;BME280;65174;48.138;21.002;2023-05-07T12:19:47;99367.19;;;23.56;43.03
76126;BME280;65174;48.138;21.002;2023-05-07T12:22:49;99362.22;;;24.12;41.64
76126;BME280;65174;48.138;21.002;2023-05-07T12:25:53;99372.03;;;24.03;40.44
76126;BME280;65174;48.138;21.002;2023-05-07T12:28:57;99362.75;;;24.64;39.84
76126;BME280;65174;48.138;21.002;2023-05-07T12:31:59;99367.88;;;24.09;39.61
76126;BME280;65174;48.138;21.002;2023-05-07T12:35:01;99376.44;;;23.52;42.50
76126;BME280;65174;48.138;21.002;2023-05-07T12:38:08;99372.22;;;24.16;41.76
76126;BME280;65174;48.138;21.002;2023-05-07T12:41:10;99371.63;;;24.35;39.41
76126;BME280;65174;48.138;21.002;2023-05-07T12:44:15;99379.78;;;24.05;40.46
76126;BME280;65174;48.138;21.002;2023-05-07T12:47:16;99375.63;;;24.31;38.48
76126;BME280;65174;48.138;21.002;2023-05-07T12:50:19;99375.38;;;24.26;37.75
76126;BME280;65174;48.138;21.002;2023-05-07T12:53:24;99398.91;;;24.28;37.53
76126;BME280;65174;48.138;21.002;2023-05-07T12:56:26;99424.56;;;19.59;50.00
76126;BME280;65174;48.138;21.002;2023-05-07T12:59:39;99409.94;;;17.63;56.31
76126;BME280;65174;48.138;21.002;2023-05-07T13:02:44;99439.31;;;17.65;57.46
76126;BME280;65174;48.138;21.002;2023-05-07T13:05:47;99438.78;;;16.37;61.94
76126;BME280;65174;48.138;21.002;2023-05-07T13:08:49;99426.13;;;16.04;63.95
76126;BME280;65174;48.138;21.002;2023-05-07T13:11:51;99422.44;;;16.26;63.40
76126;BME280;65174;48.138;21.002;2023-05-07T13:14:53;99437.50;;;16.13;64.67
76126;BME280;65174;48.138;21.002;2023-05-07T13:17:55;99432.25;;;16.03;64.22
76126;BME280;65174;48.138;21.002;2023-05-07T13:20:57;99420.69;;;16.17;63.55
76126;BME280;65174;48.138;21.002;2023-05-07T13:24:00;99431.19;;;16.15;63.90
76126;BME280;65174;48.138;21.002;2023-05-07T13:27:02;99445.25;;;15.63;65.84
76126;BME280;65174;48.138;21.002;2023-05-07T13:30:05;99440.53;;;15.78;65.70
76126;BME280;65174;48.138;21.002;2023-05-07T13:33:07;99446.69;;;16.17;66.35
76126;BME280;65174;48.138;21.002;2023-05-07T13:36:09;99449.31;;;15.86;69.83
76126;BME280;65174;48.138;21.002;2023-05-07T13:39:12;99432.34;;;15.82;71.62
76126;BME280;65174;48.138;21.002;2023-05-07T13:42:14;99442.28;;;15.68;76.17
76126;BME280;65174;48.138;21.002;2023-05-07T13:45:19;99432.63;;;15.89;74.70
76126;BME280;65174;48.138;21.002;2023-05-07T13:48:21;99431.25;;;16.34;72.21
76126;BME280;65174;48.138;21.002;2023-05-07T13:51:23;99436.47;;;16.44;68.70
76126;BME280;65174;48.138;21.002;2023-05-07T13:54:26;99427.97;;;16.42;69.04
76126;BME280;65174;48.138;21.002;2023-05-07T13:57:28;99438.88;;;16.76;66.90
76126;BME280;65174;48.138;21.002;2023-05-07T14:00:29;99439.25;;;16.61;67.89
76126;BME280;65174;48.138;21.002;2023-05-07T14:03:32;99441.16;;;16.59;67.08
76126;BME280;65174;48.138;21.002;2023-05-07T14:06:35;99443.88;;;16.48;67.41
76126;BME280;65174;48.138;21.002;2023-05-07T14:09:37;99457.22;;;16.64;65.06
76126;BME280;65174;48.138;21.002;2023-05-07T14:12:39;99465.19;;;16.73;62.65
76126;BME280;65174;48.138;21.002;2023-05-07T14:15:42;99453.03;;;16.33;63.88
76126;BME280;65174;48.138;21.002;2023-05-07T14:18:48;99481.38;;;16.86;63.28
76126;BME280;65174;48.138;21.002;2023-05-07T14:21:50;99471.91;;;16.85;62.82
76126;BME280;65174;48.138;21.002;2023-05-07T14:24:51;99478.47;;;16.89;60.81
76126;BME280;65174;48.138;21.002;2023-05-07T14:28:07;99474.81;;;17.01;60.14
76126;BME280;65174;48.138;21.002;2023-05-07T14:31:09;99473.00;;;16.92;58.29
76126;BME280;65174;48.138;21.002;2023-05-07T14:34:12;99490.97;;;17.04;58.47
76126;BME280;65174;48.138;21.002;2023-05-07T14:37:14;99501.38;;;16.66;57.91
76126;BME280;65174;48.138;21.002;2023-05-07T14:40:16;99507.56;;;16.25;59.19
76126;BME280;65174;48.138;21.002;2023-05-07T14:43:18;99502.16;;;15.57;60.39
76126;BME280;65174;48.138;21.002;2023-05-07T14:46:20;99514.38;;;15.86;59.78
76126;BME280;65174;48.138;21.002;2023-05-07T14:49:22;99507.94;;;16.21;59.50
76126;BME280;65174;48.138;21.002;2023-05-07T14:52:27;99521.13;;;15.99;59.20
76126;BME280;65174;48.138;21.002;2023-05-07T14:55:29;99527.97;;;15.38;58.41
76126;BME280;65174;48.138;21.002;2023-05-07T14:58:33;99498.00;;;15.34;59.16
76126;BME280;65174;48.138;21.002;2023-05-07T15:01:36;99505.75;;;15.24;58.40
76126;BME280;65174;48.138;21.002;2023-05-07T15:04:39;99517.75;;;15.04;58.62
76126;BME280;65174;48.138;21.002;2023-05-07T15:07:47;99525.91;;;15.00;58.95
76126;BME280;65174;48.138;21.002;2023-05-07T15:10:49;99538.38;;;15.17;58.28
76126;BME280;65174;48.138;21.002;2023-05-07T15:13:52;99531.16;;;15.21;58.46
76126;BME280;65174;48.138;21.002;2023-05-07T15:16:53;99558.31;;;14.85;58.67
76126;BME280;65174;48.138;21.002;2023-05-07T15:19:55;99555.09;;;14.39;59.22
76126;BME280;65174;48.138;21.002;2023-05-07T15:22:58;99549.16;;;14.14;59.88
76126;BME280;65174;48.138;21.002;2023-05-07T15:25:59;99559.31;;;14.40;60.92
76126;BME280;65174;48.138;21.002;2023-05-07T15:29:03;99567.94;;;14.18;59.96
76126;BME280;65174;48.138;21.002;2023-05-07T15:32:09;99574.91;;;13.61;61.02
76126;BME280;65174;48.138;21.002;2023-05-07T15:35:12;99581.09;;;13.82;60.44
76126;BME280;65174;48.138;21.002;2023-05-07T15:38:14;99596.25;;;13.75;60.06
76126;BME280;65174;48.138;21.002;2023-05-07T15:41:16;99594.03;;;13.82;60.33
76126;BME280;65174;48.138;21.002;2023-05-07T15:44:19;99571.34;;;13.62;60.74
76126;BME280;65174;48.138;21.002;2023-05-07T15:47:20;99572.06;;;13.29;60.93
76126;BME280;65174;48.138;21.002;2023-05-07T15:50:22;99570.13;;;13.09;60.96
76126;BME280;65174;48.138;21.002;2023-05-07T15:53:24;99586.72;;;13.41;60.25
76126;BME280;65174;48.138;21.002;2023-05-07T15:56:26;99584.78;;;13.21;60.33
76126;BME280;65174;48.138;21.002;2023-05-07T15:59:28;99583.47;;;13.15;60.50
76126;BME280;65174;48.138;21.002;2023-05-07T16:02:31;99592.66;;;13.19;60.39
76126;BME280;65174;48.138;21.002;2023-05-07T16:05:33;99578.44;;;12.89;60.84